Time;durP1;ratioP1;P1;durP2;ratioP2;P2;SDS_P1;SDS_P2;PMS_P1;PMS_P2;Temp;Humidity;BMP_temperature;BMP_pressure;BME280_temperature;BME280_humidity;BME280_pressure;Samples;Min_cycle;Max_cycle;Signal;HPM_P1;HPM_P2
2021/01/01 00:01:38;;;;;;;107.03;29.87;;;;;;;0.68;100.00;99826.22;5008811;28;20284;-68
2021/01/01 00:04:05;;;;;;;99.10;28.53;;;;;;;0.64;100.00;99821.84;5018153;28;20271;-67
2021/01/01 00:06:31;;;;;;;99.27;28.57;;;;;;;0.59;100.00;99827.69;5025115;28;20268;-68
2021/01/01 00:08:56;;;;;;;91.17;27.30;;;;;;;0.61;100.00;99820.06;5017233;28;20276;-67
2021/01/01 00:11:22;;;;;;;83.53;24.10;;;;;;;0.38;100.00;99828.84;5010589;28;20091;-67
2021/01/01 00:13:48;;;;;;;79.40;21.17;;;;;;;0.18;100.00;99821.41;5010267;28;20026;-67
2021/01/01 00:16:14;;;;;;;80.33;21.37;;;;;;;0.30;100.00;99831.19;5021751;28;20276;-67
2021/01/01 00:18:40;;;;;;;87.17;21.30;;;;;;;0.47;100.00;99827.38;5029854;28;20052;-68
2021/01/01 00:21:06;;;;;;;67.27;20.20;;;;;;;0.35;100.00;99824.47;5029413;28;20787;-68
2021/01/01 00:23:32;;;;;;;77.17;20.07;;;;;;;0.21;100.00;99823.19;5029575;28;20266;-69
2021/01/01 00:25:58;;;;;;;68.60;18.70;;;;;;;0.27;100.00;99833.66;5031015;28;20036;-67
2021/01/01 00:28:23;;;;;;;72.80;20.23;;;;;;;0.17;100.00;99829.09;5022094;28;20269;-67
2021/01/01 00:30:49;;;;;;;75.07;18.17;;;;;;;0.16;100.00;99832.50;5013913;28;20025;-68
2021/01/01 00:33:14;;;;;;;70.67;19.10;;;;;;;0.12;100.00;99833.22;5013539;28;20036;-67
2021/01/01 00:35:40;;;;;;;84.03;19.60;;;;;;;0.03;100.00;99835.53;5013975;28;20026;-67
2021/01/01 00:38:06;;;;;;;83.17;18.67;;;;;;;-0.03;100.00;99831.06;5023613;28;20043;-67
2021/01/01 00:40:31;;;;;;;106.00;19.93;;;;;;;0.08;100.00;99837.41;5022943;28;20555;-66
2021/01/01 00:42:58;;;;;;;90.43;20.27;;;;;;;0.15;100.00;99836.75;5013604;28;20272;-67
2021/01/01 00:45:23;;;;;;;92.83;19.10;;;;;;;0.25;100.00;99843.03;5013867;28;20025;-67
2021/01/01 00:47:49;;;;;;;89.63;20.07;;;;;;;0.32;100.00;99838.94;5015760;28;20280;-68
2021/01/01 00:50:15;;;;;;;88.73;20.17;;;;;;;0.22;100.00;99840.38;5032034;28;20492;-67
2021/01/01 00:52:42;;;;;;;83.87;18.70;;;;;;;0.03;100.00;99838.09;5032922;28;20275;-67
2021/01/01 00:55:08;;;;;;;97.03;19.40;;;;;;;-0.13;100.00;99840.19;5033272;28;20256;-67
2021/01/01 00:57:34;;;;;;;103.00;20.13;;;;;;;-0.14;100.00;99837.59;5033504;28;20268;-67
2021/01/01 01:00:00;;;;;;;109.17;20.63;;;;;;;-0.25;100.00;99838.94;5014009;28;20319;-67
2021/01/01 01:02:25;;;;;;;116.73;23.20;;;;;;;-0.34;100.00;99837.00;5013196;28;20343;-67
2021/01/01 01:04:51;;;;;;;114.30;23.07;;;;;;;-0.37;100.00;99839.44;5029630;28;20489;-67
2021/01/01 01:07:16;;;;;;;133.10;22.87;;;;;;;-0.31;100.00;99840.53;5027709;28;20113;-68
2021/01/01 01:09:42;;;;;;;125.77;21.50;;;;;;;-0.24;100.00;99841.59;5053243;28;20044;-67
2021/01/01 01:12:09;;;;;;;133.40;22.93;;;;;;;-0.17;100.00;99838.38;5052797;28;20070;-67
2021/01/01 01:14:34;;;;;;;114.47;21.87;;;;;;;-0.16;100.00;99845.25;5052771;28;20033;-68
2021/01/01 01:16:59;;;;;;;131.93;23.33;;;;;;;-0.27;100.00;99836.34;5023834;28;20269;-68
2021/01/01 01:19:25;;;;;;;131.83;24.80;;;;;;;-0.24;100.00;99840.69;5012906;28;20539;-67
2021/01/01 01:21:50;;;;;;;126.07;23.23;;;;;;;-0.10;100.00;99837.75;5019854;28;20033;-68
2021/01/01 01:24:16;;;;;;;132.63;24.83;;;;;;;-0.09;100.00;99841.19;5025809;28;20025;-68
2021/01/01 01:26:41;;;;;;;137.57;26.13;;;;;;;-0.04;100.00;99845.63;5028401;28;20034;-68
2021/01/01 01:29:06;;;;;;;133.20;24.63;;;;;;;0.08;100.00;99844.25;5023140;28;20025;-67
2021/01/01 01:31:32;;;;;;;112.70;23.73;;;;;;;-0.11;100.00;99853.97;5024656;28;20026;-68
2021/01/01 01:33:57;;;;;;;122.23;25.30;;;;;;;-0.27;100.00;99851.75;5023471;28;20400;-67
2021/01/01 01:36:23;;;;;;;129.07;25.00;;;;;;;-0.36;100.00;99856.63;5029942;28;20028;-67
2021/01/01 01:38:48;;;;;;;120.27;23.97;;;;;;;-0.53;100.00;99855.19;5031191;28;20021;-68
2021/01/01 01:41:14;;;;;;;126.47;23.80;;;;;;;-0.61;100.00;99858.41;5029410;28;20072;-68
2021/01/01 01:43:39;;;;;;;114.63;22.83;;;;;;;-0.64;100.00;99855.72;5027413;28;20025;-68
2021/01/01 01:46:05;;;;;;;120.80;22.13;;;;;;;-0.65;100.00;99853.97;5022783;28;20147;-67
2021/01/01 01:48:36;;;;;;;114.97;21.20;;;;;;;-0.74;100.00;99858.81;5029464;28;20033;-68
2021/01/01 01:51:02;;;;;;;121.07;21.73;;;;;;;-0.87;100.00;99856.66;5019684;28;20018;-68
2021/01/01 01:53:32;;;;;;;112.40;20.97;;;;;;;-0.79;100.00;99854.38;5028869;28;20822;-67
2021/01/01 01:55:59;;;;;;;126.53;21.73;;;;;;;-0.81;100.00;99859.44;5030429;28;20694;-67
2021/01/01 01:58:24;;;;;;;128.77;21.73;;;;;;;-0.75;100.00;99857.06;5029690;28;20280;-68
2021/01/01 02:03:16;;;;;;;148.77;21.70;;;;;;;-0.10;100.00;99858.28;5029541;28;20021;-68
2021/01/01 02:05:41;;;;;;;135.60;22.43;;;;;;;0.04;100.00;99856.13;5032213;28;20167;-67
2021/01/01 02:08:07;;;;;;;138.97;21.77;;;;;;;0.12;100.00;99856.34;5029572;28;20355;-67
2021/01/01 02:10:32;;;;;;;134.03;21.20;;;;;;;0.17;100.00;99865.94;5038819;28;20056;-67
2021/01/01 02:12:58;;;;;;;126.20;23.80;;;;;;;0.26;100.00;99866.22;5028416;28;20026;-67
2021/01/01 02:15:26;;;;;;;130.73;21.07;;;;;;;0.35;100.00;99860.44;5021005;28;20026;-68
2021/01/01 02:17:52;;;;;;;106.63;19.03;;;;;;;0.42;100.00;99866.66;5028999;28;20116;-68
2021/01/01 02:20:17;;;;;;;114.50;22.27;;;;;;;0.44;100.00;99865.88;5025920;28;20368;-67
2021/01/01 02:22:43;;;;;;;119.87;20.73;;;;;;;0.47;100.00;99870.22;5031391;28;20025;-67
2021/01/01 02:25:13;;;;;;;124.23;20.53;;;;;;;0.46;100.00;99864.19;5031147;28;20021;-67
2021/01/01 02:27:42;;;;;;;131.43;21.10;;;;;;;0.45;100.00;99870.16;5024034;28;20041;-67
2021/01/01 02:30:08;;;;;;;118.63;20.40;;;;;;;0.43;100.00;99869.25;5029521;28;20810;-68
2021/01/01 02:32:34;;;;;;;112.00;20.20;;;;;;;0.45;100.00;99872.75;5019149;28;20330;-67
2021/01/01 02:35:04;;;;;;;102.43;21.90;;;;;;;0.47;100.00;99873.66;5023889;28;20682;-69
2021/01/01 02:37:30;;;;;;;108.67;21.83;;;;;;;0.52;100.00;99869.53;5030411;28;20076;-68
2021/01/01 02:39:55;;;;;;;106.17;21.93;;;;;;;0.55;100.00;99874.75;5024447;28;20877;-67
2021/01/01 02:42:21;;;;;;;100.93;19.43;;;;;;;0.55;100.00;99864.47;5011949;28;20509;-67
2021/01/01 02:44:47;;;;;;;92.80;19.87;;;;;;;0.62;100.00;99869.78;5011460;28;20079;-68
2021/01/01 02:47:16;;;;;;;94.47;19.57;;;;;;;0.68;100.00;99875.97;5023924;28;20171;-68
2021/01/01 02:49:43;;;;;;;100.30;21.47;;;;;;;0.76;100.00;99873.63;5026469;28;20698;-68
2021/01/01 02:52:08;;;;;;;89.87;18.50;;;;;;;0.83;100.00;99873.78;5020652;28;20280;-68
2021/01/01 02:54:34;;;;;;;102.47;19.93;;;;;;;0.83;100.00;99875.50;5025703;28;20359;-66
2021/01/01 02:56:59;;;;;;;76.07;17.60;;;;;;;0.82;100.00;99868.63;5025810;28;20029;-67
2021/01/01 02:59:25;;;;;;;80.20;17.03;;;;;;;0.82;100.00;99871.19;5028501;28;20165;-67
2021/01/01 03:01:51;;;;;;;75.27;16.90;;;;;;;0.87;100.00;99867.06;5024412;28;20021;-67
2021/01/01 03:04:16;;;;;;;71.70;16.63;;;;;;;0.88;100.00;99868.78;5030561;28;20424;-68
2021/01/01 03:06:42;;;;;;;77.33;16.30;;;;;;;0.89;100.00;99870.53;5026955;28;20272;-67
2021/01/01 03:09:07;;;;;;;71.83;16.43;;;;;;;0.90;100.00;99867.13;5026107;28;20026;-67
2021/01/01 03:11:33;;;;;;;68.33;16.20;;;;;;;0.92;100.00;99875.75;5027760;28;20025;-67
2021/01/01 03:13:58;;;;;;;70.63;16.80;;;;;;;0.88;100.00;99874.81;5029816;28;20084;-67
2021/01/01 03:16:24;;;;;;;70.30;17.13;;;;;;;0.89;100.00;99888.53;5029896;28;20554;-67
2021/01/01 03:18:49;;;;;;;66.90;17.40;;;;;;;0.87;100.00;99879.91;5025969;28;20026;-67
2021/01/01 03:21:17;;;;;;;70.30;18.13;;;;;;;0.82;100.00;99881.47;5026225;28;20033;-68
2021/01/01 03:23:43;;;;;;;72.43;17.23;;;;;;;0.81;100.00;99888.34;5028202;28;20492;-67
2021/01/01 03:26:08;;;;;;;57.43;15.73;;;;;;;0.70;100.00;99878.56;5028056;28;20329;-67
2021/01/01 03:28:34;;;;;;;60.67;15.30;;;;;;;0.75;100.00;99879.59;5024091;28;20034;-67
2021/01/01 03:31:00;;;;;;;57.93;15.23;;;;;;;0.71;100.00;99878.59;5025716;28;20100;-67
2021/01/01 03:33:26;;;;;;;63.03;15.07;;;;;;;0.65;100.00;99880.16;5024586;28;20101;-68
2021/01/01 03:35:51;;;;;;;64.57;17.13;;;;;;;0.58;100.00;99884.25;5027897;28;20701;-68
2021/01/01 03:38:16;;;;;;;64.03;15.83;;;;;;;0.65;100.00;99885.31;5026125;28;20029;-68
2021/01/01 03:40:42;;;;;;;67.87;17.00;;;;;;;0.58;100.00;99879.97;5026238;28;20045;-68
2021/01/01 03:43:07;;;;;;;70.10;16.97;;;;;;;0.61;100.00;99878.31;5026885;28;20030;-69
2021/01/01 03:45:33;;;;;;;69.33;17.13;;;;;;;0.54;100.00;99878.16;5026024;28;20389;-67
2021/01/01 03:47:58;;;;;;;65.07;16.53;;;;;;;0.55;100.00;99879.03;5026035;28;20037;-67
2021/01/01 03:50:24;;;;;;;72.13;17.83;;;;;;;0.57;100.00;99878.22;5029226;28;20124;-68
2021/01/01 03:52:49;;;;;;;74.53;19.23;;;;;;;0.58;100.00;99874.81;5028963;28;20039;-67
2021/01/01 03:55:15;;;;;;;66.17;16.77;;;;;;;0.59;100.00;99881.72;5025709;28;20027;-68
2021/01/01 03:57:40;;;;;;;67.47;17.70;;;;;;;0.60;100.00;99880.00;5029397;28;20080;-68
2021/01/01 04:00:07;;;;;;;63.00;17.10;;;;;;;0.55;100.00;99876.44;5029390;28;20076;-67
2021/01/01 04:02:33;;;;;;;70.17;19.40;;;;;;;0.51;100.00;99872.94;5024896;28;20037;-68
2021/01/01 04:04:58;;;;;;;67.63;17.57;;;;;;;0.50;100.00;99871.19;5032912;28;20829;-68
2021/01/01 04:07:24;;;;;;;73.13;17.53;;;;;;;0.48;100.00;99875.41;5029562;28;20281;-67
2021/01/01 04:09:49;;;;;;;68.77;18.97;;;;;;;0.50;100.00;99871.19;5030964;28;20036;-67
2021/01/01 04:12:15;;;;;;;72.57;20.07;;;;;;;0.52;100.00;99861.81;5030265;28;20052;-68
2021/01/01 04:14:40;;;;;;;66.90;18.83;;;;;;;0.59;100.00;99868.84;5029954;28;20037;-68
2021/01/01 04:17:05;;;;;;;71.23;18.20;;;;;;;0.63;100.00;99866.38;5029197;28;20035;-68
2021/01/01 04:19:31;;;;;;;68.10;18.03;;;;;;;0.67;100.00;99874.22;5029129;28;20052;-67
2021/01/01 04:21:56;;;;;;;77.43;18.87;;;;;;;0.68;100.00;99877.66;5031815;28;20035;-67
2021/01/01 04:24:22;;;;;;;69.80;19.47;;;;;;;0.67;100.00;99878.50;5031574;28;20399;-68
2021/01/01 04:26:48;;;;;;;67.53;20.10;;;;;;;0.68;100.00;99875.09;5030152;28;20112;-67
2021/01/01 04:29:13;;;;;;;72.93;18.60;;;;;;;0.69;100.00;99874.25;5031667;28;20597;-67
2021/01/01 04:31:39;;;;;;;73.93;19.57;;;;;;;0.70;100.00;99878.56;5032755;28;20037;-67
2021/01/01 04:34:05;;;;;;;76.03;19.93;;;;;;;0.70;100.00;99873.44;5027114;28;20484;-68
2021/01/01 04:36:31;;;;;;;84.00;20.13;;;;;;;0.71;100.00;99870.03;5030537;28;20451;-68
2021/01/01 04:38:56;;;;;;;70.40;18.90;;;;;;;0.70;100.00;99873.44;5032785;28;20287;-68
2021/01/01 04:41:22;;;;;;;62.57;16.83;;;;;;;0.72;100.00;99874.34;5029844;28;20029;-67
2021/01/01 04:43:51;;;;;;;77.60;19.23;;;;;;;0.72;100.00;99871.75;5020654;28;20040;-67
2021/01/01 04:46:18;;;;;;;72.67;18.37;;;;;;;0.70;100.00;99874.31;5029955;28;20044;-68
2021/01/01 04:48:44;;;;;;;68.17;18.37;;;;;;;0.69;100.00;99876.84;5032532;28;20272;-67
2021/01/01 04:51:10;;;;;;;74.73;18.67;;;;;;;0.60;100.00;99872.28;5031640;28;20363;-68
2021/01/01 04:53:40;;;;;;;64.97;18.47;;;;;;;0.53;100.00;99876.41;5023146;28;20288;-67
2021/01/01 04:56:06;;;;;;;61.73;18.47;;;;;;;0.45;100.00;99870.16;5028067;28;20276;-67
2021/01/01 04:58:33;;;;;;;68.93;19.30;;;;;;;0.37;100.00;99876.81;5031264;28;20288;-67
2021/01/01 05:00:58;;;;;;;64.47;17.67;;;;;;;0.22;100.00;99874.66;5026873;28;20319;-67
2021/01/01 05:03:24;;;;;;;65.20;19.10;;;;;;;0.19;100.00;99883.97;5029498;28;20940;-67
2021/01/01 05:05:50;;;;;;;63.50;17.93;;;;;;;0.28;100.00;99881.69;5029655;28;20096;-67
2021/01/01 05:08:17;;;;;;;79.80;19.63;;;;;;;0.23;100.00;99891.81;5024544;28;20064;-66
2021/01/01 05:10:43;;;;;;;74.60;19.17;;;;;;;0.23;100.00;99891.81;5028671;28;20387;-68
2021/01/01 05:13:16;;;;;;;67.07;18.40;;;;;;;0.19;100.00;99894.25;5031917;28;21031;-68
2021/01/01 05:15:43;;;;;;;64.67;17.13;;;;;;;0.10;100.00;99889.72;5028176;28;20287;-67
2021/01/01 05:18:25;;;;;;;66.93;18.97;;;;;;;-0.10;100.00;99891.69;5028372;28;20342;-67
2021/01/01 05:20:54;;;;;;;66.55;18.08;;;;;;;-0.14;100.00;99894.97;5028513;28;20276;-67
2021/01/01 05:23:21;;;;;;;64.47;18.57;;;;;;;-0.13;100.00;99891.56;5032487;28;20033;-68
2021/01/01 05:25:48;;;;;;;58.00;16.57;;;;;;;-0.39;100.00;99898.47;5025345;28;20415;-67
2021/01/01 05:28:14;;;;;;;68.80;19.17;;;;;;;-0.44;100.00;99886.31;5029462;28;20276;-68
2021/01/01 05:30:41;;;;;;;72.87;18.23;;;;;;;-0.44;100.00;99894.03;5032331;28;20268;-67
2021/01/01 05:33:08;;;;;;;70.90;19.07;;;;;;;-0.57;100.00;99889.31;5028070;28;20770;-67
2021/01/01 05:35:34;;;;;;;76.27;19.63;;;;;;;-0.74;100.00;99899.88;5030785;28;20276;-67
2021/01/01 05:38:22;;;;;;;89.17;19.77;;;;;;;-0.94;100.00;99895.78;5029843;28;20284;-69
2021/01/01 05:40:51;;;;;;;67.13;19.07;;;;;;;-1.05;100.00;99897.09;5028712;28;20291;-67
2021/01/01 05:43:23;;;;;;;88.40;18.77;;;;;;;-0.97;100.00;99898.22;5031905;28;20264;-67
2021/01/01 05:45:50;;;;;;;94.93;20.88;;;;;;;-1.05;100.00;99899.66;5024528;28;20288;-67
2021/01/01 05:48:17;;;;;;;95.50;20.33;;;;;;;-0.98;100.00;99899.03;5026505;28;20033;-67
2021/01/01 05:50:43;;;;;;;97.20;19.73;;;;;;;-0.85;100.00;99915.72;5023727;28;20781;-67
2021/01/01 05:53:12;;;;;;;103.20;19.90;;;;;;;-0.92;100.00;99914.66;5031309;28;20295;-67
2021/01/01 05:55:37;;;;;;;102.23;20.47;;;;;;;-1.03;100.00;99915.97;5029954;28;20299;-68
2021/01/01 05:58:02;;;;;;;104.10;23.33;;;;;;;-0.93;100.00;99915.47;5025205;28;20808;-67
2021/01/01 06:00:30;;;;;;;103.50;20.17;;;;;;;-0.67;100.00;99922.38;5019729;28;20037;-67
2021/01/01 06:02:59;;;;;;;114.87;20.23;;;;;;;-0.47;100.00;99923.03;5028404;28;20112;-67
2021/01/01 06:05:28;;;;;;;97.03;19.80;;;;;;;-0.55;100.00;99923.59;5030873;28;20446;-67
2021/01/01 06:07:57;;;;;;;110.57;21.83;;;;;;;-0.65;100.00;99930.13;5026449;28;20326;-68
2021/01/01 06:10:25;;;;;;;115.47;22.03;;;;;;;-0.73;100.00;99927.28;5026713;28;20380;-67
2021/01/01 06:12:52;;;;;;;113.10;21.13;;;;;;;-0.51;100.00;99928.88;5023549;28;20295;-67
2021/01/01 06:15:22;;;;;;;104.80;22.27;;;;;;;-0.32;100.00;99935.50;5027983;28;20272;-67
2021/01/01 06:17:50;;;;;;;97.13;22.57;;;;;;;-0.49;100.00;99939.19;5024304;28;20284;-67
2021/01/01 06:20:20;;;;;;;93.87;21.33;;;;;;;-0.65;100.00;99941.25;5030216;28;20739;-68
2021/01/01 06:23:03;;;;;;;103.80;20.63;;;;;;;-0.57;100.00;99935.53;5026875;28;20291;-67
2021/01/01 06:25:30;;;;;;;98.95;20.15;;;;;;;-0.40;100.00;99942.06;5029283;28;20292;-67
2021/01/01 06:27:55;;;;;;;106.83;22.43;;;;;;;-0.29;100.00;99940.72;5028988;28;20108;-67
2021/01/01 06:30:25;;;;;;;128.63;23.70;;;;;;;-0.23;100.00;99940.94;5028057;28;20380;-68
2021/01/01 06:32:52;;;;;;;111.77;23.43;;;;;;;-0.17;100.00;99951.41;5028815;28;20412;-67
2021/01/01 06:35:20;;;;;;;114.30;22.07;;;;;;;-0.15;100.00;99946.31;5026783;28;20276;-67
2021/01/01 06:37:56;;;;;;;110.17;21.37;;;;;;;-0.17;100.00;99956.53;5022359;28;20265;-68
2021/01/01 06:40:21;;;;;;;95.90;20.83;;;;;;;-0.15;100.00;99959.16;5027669;28;20758;-67
2021/01/01 06:43:03;;;;;;;98.30;21.23;;;;;;;-0.19;100.00;99955.63;5027523;28;20295;-67
2021/01/01 06:45:41;;;;;;;81.97;21.00;;;;;;;-0.27;100.00;99959.63;5026254;28;20036;-68
2021/01/01 06:48:07;;;;;;;85.63;19.20;;;;;;;-0.33;100.00;99959.44;5027325;28;20272;-67
2021/01/01 06:50:35;;;;;;;80.87;20.87;;;;;;;-0.45;100.00;99956.47;5029250;28;20287;-68
2021/01/01 06:53:06;;;;;;;101.57;21.87;;;;;;;-0.50;100.00;99960.56;5028933;28;20028;-67
2021/01/01 06:55:33;;;;;;;90.23;20.73;;;;;;;-0.58;100.00;99972.28;5028912;28;20632;-68
2021/01/01 06:57:58;;;;;;;102.77;21.93;;;;;;;-0.62;100.00;99972.16;5026474;28;20286;-68
2021/01/01 07:00:49;;;;;;;96.33;21.33;;;;;;;-0.61;100.00;99973.94;5025989;28;20288;-68
2021/01/01 07:03:26;;;;;;;96.93;21.60;;;;;;;-0.54;100.00;99969.00;5031224;28;20035;-67
2021/01/01 07:06:01;;;;;;;103.17;20.87;;;;;;;-0.48;100.00;99961.50;5026301;28;20279;-67
2021/01/01 07:08:41;;;;;;;106.67;23.07;;;;;;;-0.36;100.00;99967.06;5023645;28;20303;-67
2021/01/01 07:11:13;;;;;;;106.50;22.03;;;;;;;-0.28;100.00;99972.41;5027246;28;20322;-67
2021/01/01 07:13:45;;;;;;;95.30;22.13;;;;;;;-0.23;100.00;99976.91;5027087;28;20319;-67
2021/01/01 07:16:11;;;;;;;103.95;22.50;;;;;;;-0.18;100.00;99975.34;5027871;28;20681;-68
2021/01/01 07:18:37;;;;;;;104.57;23.13;;;;;;;-0.10;100.00;99980.75;5024692;28;20025;-67
2021/01/01 07:21:07;;;;;;;104.27;22.50;;;;;;;-0.14;100.00;99982.31;5024009;28;20342;-67
2021/01/01 07:23:33;;;;;;;94.17;20.90;;;;;;;-0.14;100.00;99987.47;5022270;28;20392;-67
2021/01/01 07:25:59;;;;;;;99.00;20.50;;;;;;;-0.12;100.00;99988.41;5028866;28;20278;-68
2021/01/01 07:28:26;;;;;;;71.67;19.33;;;;;;;-0.12;100.00;99992.63;5009715;28;20311;-68
2021/01/01 07:30:52;;;;;;;83.27;20.40;;;;;;;-0.16;100.00;99989.09;5025421;28;20291;-69
2021/01/01 07:33:25;;;;;;;95.03;19.67;;;;;;;-0.21;100.00;99994.94;5024429;28;20280;-67
2021/01/01 07:35:56;;;;;;;73.03;19.00;;;;;;;-0.25;100.00;99991.38;5027089;28;20272;-68
2021/01/01 07:38:23;;;;;;;65.53;18.93;;;;;;;-0.22;100.00;99999.19;5029331;28;20017;-68
2021/01/01 07:40:49;;;;;;;75.07;21.87;;;;;;;-0.15;100.00;99996.00;5026465;28;20276;-68
2021/01/01 07:43:15;;;;;;;76.03;19.67;;;;;;;-0.08;100.00;99997.06;5023985;28;20791;-68
2021/01/01 07:45:41;;;;;;;75.17;19.70;;;;;;;-0.05;100.00;100003.19;5027312;28;20306;-67
2021/01/01 07:48:07;;;;;;;64.47;18.77;;;;;;;-0.03;100.00;100006.66;5028438;28;20026;-67
2021/01/01 07:50:34;;;;;;;64.73;18.60;;;;;;;-0.02;100.00;100003.28;5027240;28;20350;-67
2021/01/01 07:53:11;;;;;;;71.00;19.43;;;;;;;0.02;100.00;100000.81;5026429;28;20623;-67
2021/01/01 07:55:38;;;;;;;64.03;19.93;;;;;;;0.04;100.00;100012.03;5023233;28;20279;-68
2021/01/01 07:58:07;;;;;;;60.37;17.80;;;;;;;0.08;100.00;100006.16;5027713;28;20363;-67
2021/01/01 08:00:33;;;;;;;64.57;18.33;;;;;;;0.12;100.00;100007.97;5020517;28;20343;-68
2021/01/01 08:03:01;;;;;;;45.57;15.67;;;;;;;0.17;100.00;100014.16;5025787;28;20359;-68
2021/01/01 08:05:27;;;;;;;58.17;17.20;;;;;;;0.20;100.00;100020.25;5022248;28;20272;-67
2021/01/01 08:07:52;;;;;;;60.47;18.13;;;;;;;0.20;100.00;100012.53;5024139;28;20287;-68
2021/01/01 08:10:31;;;;;;;57.83;18.17;;;;;;;0.23;100.00;100014.34;5023825;28;20028;-67
2021/01/01 08:12:56;;;;;;;55.33;17.57;;;;;;;0.24;100.00;100016.06;5028345;28;20098;-68
2021/01/01 08:15:29;;;;;;;67.03;17.83;;;;;;;0.25;100.00;100007.56;5024530;28;20308;-67
2021/01/01 08:17:55;;;;;;;58.97;17.67;;;;;;;0.24;100.00;100010.94;5025085;28;20503;-67
2021/01/01 08:20:21;;;;;;;49.27;17.30;;;;;;;0.20;100.00;100011.69;5028585;28;20631;-68
2021/01/01 08:22:49;;;;;;;52.57;17.20;;;;;;;0.18;100.00;100015.91;5026910;28;20288;-69
2021/01/01 08:25:18;;;;;;;55.07;19.07;;;;;;;0.14;100.00;100020.09;5022563;28;20630;-68
2021/01/01 08:27:46;;;;;;;53.40;18.00;;;;;;;0.13;100.00;100025.19;5025397;28;20740;-67
2021/01/01 08:30:12;;;;;;;52.47;18.17;;;;;;;0.13;100.00;100022.59;5025295;28;20767;-67
2021/01/01 08:32:39;;;;;;;55.87;18.63;;;;;;;0.22;100.00;100023.75;5025834;28;20398;-68
2021/01/01 08:35:08;;;;;;;54.13;17.80;;;;;;;0.34;100.00;100022.38;5025489;28;20296;-67
2021/01/01 08:37:34;;;;;;;47.37;16.77;;;;;;;0.39;100.00;100031.13;5016762;28;20762;-67
2021/01/01 08:40:10;;;;;;;58.23;18.83;;;;;;;0.38;100.00;100026.81;5026802;28;20329;-68
2021/01/01 08:42:38;;;;;;;50.70;17.40;;;;;;;0.35;100.00;100035.28;5026257;28;20098;-68
2021/01/01 08:45:11;;;;;;;48.63;17.50;;;;;;;0.27;100.00;100042.78;5029144;28;20305;-68
2021/01/01 08:47:37;;;;;;;51.33;16.93;;;;;;;0.46;100.00;100041.63;5025430;28;20770;-68
2021/01/01 08:50:04;;;;;;;47.47;17.07;;;;;;;0.62;100.00;100042.13;5030112;28;20958;-67
2021/01/01 08:52:31;;;;;;;44.03;16.50;;;;;;;1.04;100.00;100045.97;5025241;28;20280;-68
2021/01/01 08:54:57;;;;;;;38.53;14.10;;;;;;;1.13;100.00;100050.50;5033087;28;20331;-68
2021/01/01 08:57:28;;;;;;;36.40;14.50;;;;;;;1.08;100.00;100057.22;5028757;28;20276;-67
2021/01/01 08:59:59;;;;;;;37.60;13.43;;;;;;;0.73;100.00;100061.34;5026775;28;20459;-67
2021/01/01 09:02:26;;;;;;;32.13;14.43;;;;;;;0.62;100.00;100060.16;5027297;28;20284;-67
2021/01/01 09:04:52;;;;;;;41.67;15.37;;;;;;;0.64;100.00;100063.63;5028707;28;20646;-68
2021/01/01 09:07:17;;;;;;;45.87;16.17;;;;;;;0.66;100.00;100061.97;5033172;28;20764;-67
2021/01/01 09:09:43;;;;;;;41.50;16.83;;;;;;;0.73;100.00;100063.91;5023144;28;20354;-67
2021/01/01 09:12:16;;;;;;;44.63;16.90;;;;;;;0.68;100.00;100068.03;5025718;28;20025;-68
2021/01/01 09:14:42;;;;;;;;;;;;;;;0.72;100.00;100067.28;5030583;28;20029;-68
2021/01/01 09:17:10;;;;;;;49.40;18.37;;;;;;;0.75;100.00;100067.41;5022264;28;20427;-67
2021/01/01 09:19:35;;;;;;;56.80;19.23;;;;;;;0.81;100.00;100083.00;5025787;28;20283;-68
2021/01/01 09:22:18;;;;;;;55.97;19.73;;;;;;;1.01;100.00;100083.63;5027747;28;20284;-68
2021/01/01 09:24:44;;;;;;;;;;;;;;;1.04;100.00;100078.56;5028495;28;20018;-68
2021/01/01 09:27:10;;;;;;;52.87;19.83;;;;;;;1.06;100.00;100080.34;5023355;28;19955;-68
2021/01/01 09:29:36;;;;;;;46.77;17.37;;;;;;;1.07;100.00;100082.09;5030288;28;20260;-67
2021/01/01 09:32:05;;;;;;;49.47;18.87;;;;;;;1.21;100.00;100089.34;5028840;28;20045;-68
2021/01/01 09:34:31;;;;;;;50.60;18.63;;;;;;;1.19;100.00;100086.72;5027278;28;20029;-67
2021/01/01 09:36:56;;;;;;;50.10;19.33;;;;;;;1.19;100.00;100084.16;5028503;28;20283;-68
2021/01/01 09:39:21;;;;;;;50.67;18.23;;;;;;;1.28;100.00;100087.00;5026468;28;20067;-68
2021/01/01 09:41:48;;;;;;;54.20;18.80;;;;;;;1.30;100.00;100081.88;5026229;28;20068;-68
2021/01/01 09:44:13;;;;;;;52.67;18.93;;;;;;;1.34;100.00;100091.47;5029720;28;20441;-67
2021/01/01 09:46:43;;;;;;;46.83;18.97;;;;;;;1.38;100.00;100075.25;5030787;28;20292;-67
2021/01/01 09:49:09;;;;;;;43.70;17.87;;;;;;;1.42;100.00;100079.66;5025656;28;20049;-67
2021/01/01 09:51:35;;;;;;;44.13;18.57;;;;;;;1.43;100.00;100081.41;5030414;28;20302;-68
2021/01/01 09:54:00;;;;;;;44.53;17.77;;;;;;;1.51;100.00;100079.03;5026948;28;20276;-67
2021/01/01 09:56:33;;;;;;;46.80;18.70;;;;;;;1.46;100.00;100077.22;5030086;28;20369;-68
2021/01/01 09:58:59;;;;;;;49.40;20.23;;;;;;;1.54;100.00;100080.00;5025636;28;20053;-67
2021/01/01 10:01:30;;;;;;;45.50;17.00;;;;;;;1.58;100.00;100081.84;5029892;28;20802;-68
2021/01/01 10:03:56;;;;;;;52.97;17.93;;;;;;;1.64;100.00;100078.53;5026918;28;20105;-67
2021/01/01 10:06:21;;;;;;;44.07;18.80;;;;;;;1.74;100.00;100073.69;5028607;28;20370;-67
2021/01/01 10:08:47;;;;;;;47.00;17.93;;;;;;;1.86;100.00;100082.56;5029316;28;20047;-69
2021/01/01 10:11:13;;;;;;;53.10;19.13;;;;;;;1.94;100.00;100091.34;5030343;28;20088;-68
2021/01/01 10:13:38;;;;;;;41.80;17.10;;;;;;;1.92;100.00;100087.88;5029532;28;20524;-67
2021/01/01 10:16:11;;;;;;;52.30;18.67;;;;;;;1.93;100.00;100081.88;5026429;28;20284;-67
2021/01/01 10:18:38;;;;;;;40.92;16.33;;;;;;;1.86;100.00;100080.00;5025512;28;20043;-68
2021/01/01 10:21:04;;;;;;;45.57;19.33;;;;;;;1.76;100.00;100082.31;5028643;28;20053;-67
2021/01/01 10:23:29;;;;;;;43.30;16.70;;;;;;;1.77;100.00;100088.34;5030088;28;20406;-68
2021/01/01 10:25:55;;;;;;;48.00;18.53;;;;;;;1.90;100.00;100089.53;5031349;28;20045;-68
2021/01/01 10:28:20;;;;;;;43.43;17.70;;;;;;;2.09;100.00;100085.75;5024716;28;20484;-67
2021/01/01 10:30:46;;;;;;;46.50;18.90;;;;;;;2.15;100.00;100088.47;5029499;28;20032;-68
2021/01/01 10:33:12;;;;;;;44.33;16.73;;;;;;;2.30;100.00;100092.31;5023686;28;20025;-67
2021/01/01 10:35:38;;;;;;;43.83;17.73;;;;;;;2.30;100.00;100101.75;5030288;28;20279;-67
2021/01/01 10:38:03;;;;;;;46.87;17.13;;;;;;;2.38;100.00;100104.53;5028168;28;20759;-68
2021/01/01 10:40:29;;;;;;;41.93;17.20;;;;;;;2.27;100.00;100107.69;5029880;28;20039;-67
2021/01/01 10:42:56;;;;;;;42.63;16.80;;;;;;;2.31;100.00;100100.94;5029733;28;20247;-67
2021/01/01 10:45:21;;;;;;;46.70;16.83;;;;;;;2.24;100.00;100096.44;5031115;28;20473;-69
2021/01/01 10:47:47;;;;;;;38.33;15.30;;;;;;;2.31;100.00;100095.78;5026876;28;20302;-67
2021/01/01 10:50:13;;;;;;;41.97;16.07;;;;;;;2.26;100.00;100100.81;5018433;28;20033;-67
2021/01/01 10:52:39;;;;;;;35.90;14.87;;;;;;;2.26;100.00;100095.66;5030627;28;20256;-67
2021/01/01 10:55:05;;;;;;;44.80;17.00;;;;;;;2.29;100.00;100090.56;5029625;28;20049;-68
2021/01/01 10:57:30;;;;;;;38.17;14.93;;;;;;;2.31;100.00;100094.06;5026634;28;20041;-68
2021/01/01 10:59:55;;;;;;;43.27;16.47;;;;;;;2.38;100.00;100101.94;5029331;28;20797;-67
2021/01/01 11:02:21;;;;;;;37.13;15.17;;;;;;;2.34;100.00;100093.25;5026741;28;20092;-67
2021/01/01 11:04:46;;;;;;;37.30;15.57;;;;;;;2.32;100.00;100095.81;5030379;28;20041;-67
2021/01/01 11:07:12;;;;;;;36.53;15.00;;;;;;;2.25;100.00;100096.47;5028716;28;20082;-69
2021/01/01 11:09:37;;;;;;;33.27;14.63;;;;;;;2.18;100.00;100081.72;5025060;28;20029;-67
2021/01/01 11:12:04;;;;;;;33.07;13.43;;;;;;;2.16;100.00;100078.19;5020347;28;20030;-67
2021/01/01 12:25:47;;;;;;;37.30;14.47;;;;;;;3.28;100.00;100063.56;5028702;28;20360;-67